createdAt,value
2017-04-16T00:00:44.911Z,0
2017-04-16T00:04:35.492Z,0
2017-04-16T00:06:50.609Z,0
2017-04-16T00:09:14.029Z,0
2017-04-16T00:11:29.079Z,0
2017-04-16T00:13:52.508Z,0
2017-04-16T00:16:02.195Z,0
2017-04-16T00:18:17.244Z,0
2017-04-16T00:20:40.691Z,0
2017-04-16T00:23:04.057Z,0
2017-04-16T00:25:27.501Z,0
2017-04-16T00:27:50.919Z,0
2017-04-16T00:30:14.356Z,0
2017-04-16T00:32:37.781Z,0
2017-04-16T00:35:01.082Z,0
2017-04-16T00:37:24.628Z,0
2017-04-16T00:39:47.932Z,0
2017-04-16T00:42:11.398Z,0
2017-04-16T00:44:34.709Z,0
2017-04-16T00:46:58.177Z,0
2017-04-16T00:49:21.581Z,0
2017-04-16T00:51:45.432Z,0
2017-04-16T00:54:09.021Z,0
2017-04-16T00:56:32.270Z,0
2017-04-16T00:58:55.688Z,0
2017-04-16T01:02:46.516Z,0
2017-04-16T01:05:09.999Z,0
2017-04-16T01:07:25.075Z,0
2017-04-16T01:09:48.573Z,0
2017-04-16T01:12:03.627Z,0
2017-04-16T01:14:27.068Z,0
2017-04-16T01:16:50.526Z,0
2017-04-16T01:19:13.965Z,0
2017-04-16T01:21:37.432Z,0
2017-04-16T01:24:00.880Z,0
2017-04-16T01:26:24.148Z,0
2017-04-16T01:28:39.070Z,0
2017-04-16T01:31:02.514Z,0
2017-04-16T01:33:25.948Z,0
2017-04-16T01:35:49.423Z,0
2017-04-16T01:38:12.725Z,0
2017-04-16T01:40:36.249Z,0
2017-04-16T01:42:59.573Z,0
2017-04-16T01:45:23.197Z,0
2017-04-16T01:47:46.380Z,0
2017-04-16T01:50:01.392Z,0
2017-04-16T01:52:24.808Z,0
2017-04-16T01:54:34.491Z,0
2017-04-16T01:56:57.924Z,0
2017-04-16T01:59:08.075Z,0
2017-04-16T02:01:23.080Z,0
2017-04-16T02:05:39.395Z,0
2017-04-16T02:07:54.408Z,0
2017-04-16T02:10:18.821Z,0
2017-04-16T02:12:33.823Z,0
2017-04-16T02:14:57.139Z,0
2017-04-16T02:17:20.437Z,0
2017-04-16T02:19:43.799Z,0
2017-04-16T02:22:07.195Z,0
2017-04-16T02:24:30.655Z,0
2017-04-16T02:26:54.230Z,0
2017-04-16T02:29:18.586Z,0
2017-04-16T02:31:42.058Z,0
2017-04-16T02:34:05.378Z,0
2017-04-16T02:36:28.883Z,0
2017-04-16T02:40:29.135Z,0
2017-04-16T02:42:39.809Z,0
2017-04-16T02:45:03.223Z,0
2017-04-16T02:47:18.255Z,0
2017-04-16T02:49:41.676Z,0
2017-04-16T02:52:05.090Z,0
2017-04-16T02:54:28.488Z,0
2017-04-16T02:56:51.929Z,0
2017-04-16T02:59:15.315Z,0
2017-04-16T03:01:38.741Z,0
2017-04-16T03:04:02.174Z,0
2017-04-16T03:06:25.579Z,0
2017-04-16T03:08:48.929Z,0
2017-04-16T03:11:03.936Z,0
2017-04-16T03:13:27.360Z,0
2017-04-16T03:15:50.749Z,0
2017-04-16T03:18:14.150Z,0
2017-04-16T03:20:37.543Z,0
2017-04-16T03:22:52.551Z,0
2017-04-16T03:25:15.969Z,0
2017-04-16T03:27:39.372Z,0
2017-04-16T03:31:56.182Z,0
2017-04-16T03:34:19.609Z,0
2017-04-16T03:36:42.937Z,0
2017-04-16T03:39:06.323Z,0
2017-04-16T03:41:12.921Z,0
2017-04-16T03:43:36.329Z,0
2017-04-16T03:45:59.730Z,0
2017-04-16T03:48:23.138Z,0
2017-04-16T03:50:29.745Z,0
2017-04-16T03:52:44.737Z,0
2017-04-16T03:55:08.159Z,0
2017-04-16T03:57:23.150Z,0
2017-04-16T03:59:46.514Z,0
2017-04-16T04:02:09.922Z,0
2017-04-16T04:04:33.341Z,0
2017-04-16T04:06:48.323Z,0
2017-04-16T04:09:11.717Z,0
2017-04-16T04:11:35.111Z,0
2017-04-16T04:13:58.437Z,0
2017-04-16T04:16:21.808Z,0
2017-04-16T04:18:45.218Z,0
2017-04-16T04:21:08.694Z,4
2017-04-16T04:23:32.159Z,4
2017-04-16T04:25:55.362Z,4
2017-04-16T04:28:18.767Z,12
2017-04-16T04:30:42.202Z,12
2017-04-16T04:33:05.603Z,16
2017-04-16T04:37:04.804Z,24
2017-04-16T04:39:28.221Z,28
2017-04-16T04:41:43.208Z,32
2017-04-16T04:43:58.193Z,32
2017-04-16T04:46:13.109Z,40
2017-04-16T04:48:36.480Z,48
2017-04-16T04:50:59.853Z,56
2017-04-16T04:53:23.231Z,68
2017-04-16T04:55:46.603Z,92
2017-04-16T05:00:11.640Z,148
2017-04-16T05:02:35.026Z,172
2017-04-16T05:04:58.423Z,176
2017-04-16T05:07:21.823Z,188
2017-04-16T05:09:45.210Z,184
2017-04-16T05:12:08.660Z,164
2017-04-16T05:14:31.948Z,176
2017-04-16T05:18:40.196Z,148
2017-04-16T05:21:03.584Z,136
2017-04-16T05:23:26.886Z,136
2017-04-16T05:25:50.260Z,148
2017-04-16T05:28:13.626Z,164
2017-04-16T05:30:36.970Z,164
2017-04-16T05:33:00.333Z,164
2017-04-16T05:35:23.837Z,164
2017-04-16T05:37:33.820Z,164
2017-04-16T05:39:57.233Z,164
2017-04-16T05:44:21.755Z,184
2017-04-16T05:46:45.176Z,200
2017-04-16T05:50:49.725Z,300
2017-04-16T05:53:08.292Z,320
2017-04-16T05:55:31.695Z,296
2017-04-16T05:57:55.081Z,296
2017-04-16T06:01:57.983Z,312
2017-04-16T06:04:21.391Z,336
2017-04-16T06:06:44.781Z,384
2017-04-16T06:08:54.952Z,384
2017-04-16T06:11:18.288Z,372
2017-04-16T06:13:41.623Z,412
2017-04-16T06:16:05.037Z,432
2017-04-16T06:18:28.349Z,392
2017-04-16T06:20:43.289Z,396
2017-04-16T06:23:06.619Z,448
2017-04-16T06:27:31.949Z,632
2017-04-16T06:29:55.377Z,600
2017-04-16T06:32:18.798Z,572
2017-04-16T06:34:42.234Z,604
2017-04-16T06:37:05.624Z,648
2017-04-16T06:41:30.231Z,792
2017-04-16T06:43:53.728Z,772
2017-04-16T06:46:17.209Z,832
2017-04-16T06:48:32.305Z,984
2017-04-16T06:50:55.681Z,960
2017-04-16T06:53:19.188Z,1000
2017-04-16T06:55:42.693Z,996
2017-04-16T06:58:06.170Z,1156
2017-04-16T07:00:29.695Z,1128
2017-04-16T07:02:53.171Z,1092
2017-04-16T07:05:16.674Z,968
2017-04-16T07:07:40.332Z,972
2017-04-16T07:10:03.661Z,1044
2017-04-16T07:14:28.850Z,1076
2017-04-16T07:16:52.403Z,1112
2017-04-16T07:19:03.100Z,1200
2017-04-16T07:21:26.603Z,1328
2017-04-16T07:23:50.102Z,1260
2017-04-16T07:26:13.639Z,1216
2017-04-16T07:28:37.183Z,1312
2017-04-16T07:30:46.903Z,1336
2017-04-16T07:33:10.484Z,1416
2017-04-16T07:35:25.589Z,1396
2017-04-16T07:37:49.126Z,1308
2017-04-16T07:40:04.274Z,1320
2017-04-16T07:42:27.833Z,1380
2017-04-16T07:44:51.397Z,1436
2017-04-16T07:47:14.951Z,1460
2017-04-16T07:49:25.206Z,1448
2017-04-16T07:51:48.837Z,1380
2017-04-16T07:54:03.967Z,1316
2017-04-16T07:56:27.565Z,1232
2017-04-16T07:58:42.734Z,1136
2017-04-16T08:01:06.344Z,1160
2017-04-16T08:03:29.945Z,1184
2017-04-16T08:05:53.529Z,1120
2017-04-16T08:08:17.144Z,1040
2017-04-16T08:10:40.739Z,976
2017-04-16T08:15:06.003Z,1048
2017-04-16T08:17:29.589Z,1100
2017-04-16T08:19:39.801Z,1152
2017-04-16T08:22:03.385Z,1224
2017-04-16T08:24:26.982Z,1296
2017-04-16T08:26:33.809Z,1352
2017-04-16T08:28:57.374Z,1404
2017-04-16T08:31:20.949Z,1444
2017-04-16T08:33:36.143Z,1428
2017-04-16T08:35:59.746Z,1420
2017-04-16T08:38:23.343Z,1460
2017-04-16T08:42:48.695Z,1492
2017-04-16T08:45:12.350Z,1472
2017-04-16T08:47:22.572Z,1508
2017-04-16T08:49:46.236Z,1524
2017-04-16T08:52:09.871Z,1528
2017-04-16T08:54:33.501Z,1608
2017-04-16T08:56:57.137Z,1732
2017-04-16T08:59:12.376Z,1928
2017-04-16T09:01:36.015Z,2276
2017-04-16T09:03:51.268Z,2476
2017-04-16T09:06:15.513Z,2512
2017-04-16T09:08:39.219Z,2372
2017-04-16T09:11:02.913Z,2344
2017-04-16T09:13:26.643Z,2592
2017-04-16T09:15:50.400Z,2772
2017-04-16T09:18:14.087Z,2796
2017-04-16T09:20:29.386Z,2656
2017-04-16T09:22:53.142Z,2512
2017-04-16T09:25:16.911Z,2356
2017-04-16T09:27:40.652Z,2360
2017-04-16T09:29:50.507Z,2376
2017-04-16T09:32:14.323Z,2484
2017-04-16T09:34:38.120Z,2564
2017-04-16T09:36:53.490Z,2632
2017-04-16T09:39:17.312Z,2632
2017-04-16T09:41:33.691Z,2708
2017-04-16T09:43:57.558Z,2848
2017-04-16T09:46:21.396Z,3028
2017-04-16T09:48:45.263Z,3012
2017-04-16T09:51:00.623Z,2956
2017-04-16T09:53:24.412Z,2888
2017-04-16T09:58:02.753Z,3368
2017-04-16T10:00:27.132Z,3396
2017-04-16T10:02:50.995Z,3216
2017-04-16T10:07:16.696Z,2908
2017-04-16T10:09:49.395Z,2768
2017-04-16T10:12:20.142Z,2776
2017-04-16T10:16:45.868Z,2644
2017-04-16T10:19:09.770Z,2432
2017-04-16T10:21:33.686Z,2200
2017-04-16T10:23:57.593Z,2220
2017-04-16T10:28:22.785Z,2248
2017-04-16T10:30:38.254Z,2280
2017-04-16T10:33:02.092Z,2432
2017-04-16T10:35:25.948Z,2660
2017-04-16T10:37:49.792Z,2696
2017-04-16T10:40:13.648Z,2552
2017-04-16T10:42:37.470Z,2336
2017-04-16T10:45:01.277Z,1868
2017-04-16T10:47:25.080Z,1596
2017-04-16T10:49:40.425Z,1552
2017-04-16T10:51:50.753Z,1604
2017-04-16T10:54:14.524Z,1516
2017-04-16T10:56:29.860Z,1416
2017-04-16T10:58:53.592Z,1284
2017-04-16T11:01:17.329Z,1360
2017-04-16T11:03:27.618Z,1448
2017-04-16T11:05:51.331Z,1496
2017-04-16T11:08:15.027Z,1148
2017-04-16T11:10:30.281Z,876
2017-04-16T11:12:53.938Z,652
2017-04-16T11:15:17.524Z,552
2017-04-16T11:17:41.075Z,456
2017-04-16T11:20:04.690Z,392
2017-04-16T11:22:28.252Z,456
2017-04-16T11:24:51.816Z,536
2017-04-16T11:27:06.935Z,588
2017-04-16T11:29:30.462Z,612
2017-04-16T11:31:54.922Z,732
2017-04-16T11:34:18.438Z,940
2017-04-16T11:36:41.916Z,1120
2017-04-16T11:39:06.382Z,1388
2017-04-16T11:41:37.876Z,1628
2017-04-16T11:43:53.085Z,1744
2017-04-16T11:46:08.277Z,1876
2017-04-16T11:48:31.896Z,1984
2017-04-16T11:50:55.519Z,2000
2017-04-16T11:53:10.799Z,2020
2017-04-16T11:55:34.472Z,1980
2017-04-16T11:57:58.157Z,1724
2017-04-16T12:00:05.038Z,1372
2017-04-16T12:02:29.381Z,1092
2017-04-16T12:04:52.434Z,884
2017-04-16T12:07:16.142Z,824
2017-04-16T12:09:39.793Z,768
2017-04-16T12:12:03.398Z,608
2017-04-16T12:14:27.024Z,524
2017-04-16T12:16:42.223Z,552
2017-04-16T12:18:52.455Z,592
2017-04-16T12:21:16.041Z,516
2017-04-16T12:23:39.598Z,532
2017-04-16T12:28:13.395Z,616
2017-04-16T12:30:36.946Z,688
2017-04-16T12:33:00.451Z,772
2017-04-16T12:35:15.541Z,928
2017-04-16T12:37:39.742Z,1176
2017-04-16T12:39:54.841Z,1360
2017-04-16T12:42:04.574Z,1388
2017-04-16T12:44:29.394Z,1376
2017-04-16T12:46:56.390Z,1360
2017-04-16T12:49:19.007Z,1336
2017-04-16T12:51:43.399Z,1308
2017-04-16T12:56:10.425Z,1216
2017-04-16T12:58:33.923Z,1156
2017-04-16T13:00:58.428Z,1112
2017-04-16T13:03:21.366Z,1076
2017-04-16T13:05:36.481Z,1088
2017-04-16T13:08:00.002Z,1000
2017-04-16T13:10:15.075Z,944
2017-04-16T13:12:30.171Z,908
2017-04-16T13:14:53.645Z,876
2017-04-16T13:17:09.707Z,856
2017-04-16T13:19:33.203Z,808
2017-04-16T13:21:56.666Z,712
2017-04-16T13:24:20.130Z,576
2017-04-16T13:28:44.737Z,436
2017-04-16T13:31:08.210Z,404
2017-04-16T13:33:31.661Z,332
2017-04-16T13:37:57.660Z,288
2017-04-16T13:40:20.536Z,336
2017-04-16T13:42:43.943Z,384
2017-04-16T13:45:07.285Z,472
2017-04-16T13:47:30.669Z,548
2017-04-16T13:51:55.233Z,684
2017-04-16T13:55:54.253Z,748
2017-04-16T13:58:09.277Z,764
2017-04-16T14:00:32.660Z,768
2017-04-16T14:02:56.675Z,748
2017-04-16T14:05:20.178Z,780
2017-04-16T14:07:44.177Z,824
2017-04-16T14:10:09.685Z,868
2017-04-16T14:12:42.675Z,840
2017-04-16T14:15:10.186Z,856
2017-04-16T14:17:38.179Z,940
2017-04-16T14:19:59.690Z,1052
2017-04-16T14:22:27.182Z,1144
2017-04-16T14:24:52.687Z,1144
2017-04-16T14:27:18.685Z,1112
2017-04-16T14:29:44.694Z,1100
2017-04-16T14:32:10.693Z,1112
2017-04-16T14:34:37.683Z,1060
2017-04-16T14:37:06.175Z,1024
2017-04-16T14:39:32.678Z,1008
2017-04-16T14:41:59.185Z,984
2017-04-16T14:44:27.696Z,964
2017-04-16T14:46:58.189Z,920
2017-04-16T14:49:24.691Z,904
2017-04-16T14:51:51.192Z,944
2017-04-16T14:54:18.711Z,1004
2017-04-16T14:56:44.758Z,1040
2017-04-16T14:59:14.697Z,1104
2017-04-16T15:01:43.698Z,1236
2017-04-16T15:04:14.187Z,1420
2017-04-16T15:06:42.188Z,1556
2017-04-16T15:09:12.182Z,1552
2017-04-16T15:13:27.770Z,1448
2017-04-16T15:15:48.238Z,1512
2017-04-16T15:18:14.749Z,1700
2017-04-16T15:20:40.755Z,1776
2017-04-16T15:23:12.255Z,1752
2017-04-16T15:25:36.762Z,1664
2017-04-16T15:28:03.759Z,1556
2017-04-16T15:30:32.762Z,1416
2017-04-16T15:32:57.266Z,1260
2017-04-16T15:35:23.248Z,1092
2017-04-16T15:37:56.747Z,936
2017-04-16T15:40:27.771Z,836
2017-04-16T15:42:54.751Z,732
2017-04-16T15:45:25.252Z,712
2017-04-16T15:47:53.258Z,684
2017-04-16T15:50:15.840Z,644
2017-04-16T15:52:41.286Z,640
2017-04-16T15:55:04.825Z,660
2017-04-16T15:57:41.244Z,672
2017-04-16T16:00:12.275Z,672
2017-04-16T16:02:37.136Z,612
2017-04-16T16:05:04.249Z,552
2017-04-16T16:07:29.753Z,480
2017-04-16T16:09:57.249Z,416
2017-04-16T16:12:23.753Z,352
2017-04-16T16:14:51.751Z,316
2017-04-16T16:17:18.261Z,292
2017-04-16T16:19:48.750Z,300
2017-04-16T16:22:14.766Z,304
2017-04-16T16:24:40.260Z,300
2017-04-16T16:27:07.247Z,304
2017-04-16T16:31:30.933Z,388
2017-04-16T16:33:32.689Z,428
2017-04-16T16:35:56.194Z,408
2017-04-16T16:38:06.377Z,360
2017-04-16T16:40:29.823Z,316
2017-04-16T16:42:53.315Z,288
2017-04-16T16:45:16.778Z,284
2017-04-16T16:47:40.261Z,276
2017-04-16T16:50:03.719Z,256
2017-04-16T16:52:27.157Z,224
2017-04-16T16:54:50.612Z,220
2017-04-16T16:57:14.066Z,220
2017-04-16T16:59:37.563Z,236
2017-04-16T17:02:00.904Z,252
2017-04-16T17:04:24.291Z,260
2017-04-16T17:08:49.273Z,284
2017-04-16T17:11:12.723Z,260
2017-04-16T17:13:36.159Z,232
2017-04-16T17:15:59.544Z,192
2017-04-16T17:18:22.930Z,168
2017-04-16T17:20:37.928Z,164
2017-04-16T17:23:01.270Z,164
2017-04-16T17:25:24.672Z,156
2017-04-16T17:27:48.083Z,136
2017-04-16T17:30:11.435Z,128
2017-04-16T17:32:34.852Z,128
2017-04-16T17:34:58.296Z,132
2017-04-16T17:37:21.719Z,136
2017-04-16T17:39:31.400Z,128
2017-04-16T17:41:48.143Z,124
2017-04-16T17:44:11.557Z,112
2017-04-16T17:46:37.030Z,92
2017-04-16T17:49:00.388Z,84
2017-04-16T17:51:23.731Z,72
2017-04-16T17:53:47.138Z,60
2017-04-16T17:56:10.531Z,48
2017-04-16T17:58:33.935Z,40
2017-04-16T18:00:57.296Z,32
2017-04-16T18:03:20.673Z,28
2017-04-16T18:05:44.081Z,24
2017-04-16T18:08:07.468Z,20
2017-04-16T18:10:30.853Z,12
2017-04-16T18:12:54.217Z,12
2017-04-16T18:15:17.627Z,8
2017-04-16T18:17:41.022Z,8
2017-04-16T18:20:04.419Z,8
2017-04-16T18:22:27.762Z,4
2017-04-16T18:24:51.125Z,4
2017-04-16T18:27:14.517Z,4
2017-04-16T18:29:37.927Z,0
2017-04-16T18:32:01.321Z,4
2017-04-16T18:34:24.724Z,0
2017-04-16T18:36:48.130Z,0
2017-04-16T18:39:03.154Z,0
2017-04-16T18:41:26.570Z,0
2017-04-16T18:45:51.621Z,0
2017-04-16T18:48:06.639Z,0
2017-04-16T18:50:30.042Z,0
2017-04-16T18:52:53.361Z,0
2017-04-16T18:57:17.955Z,0
2017-04-16T18:59:41.341Z,0
2017-04-16T19:02:04.655Z,0
2017-04-16T19:04:28.026Z,0
2017-04-16T19:06:51.443Z,0
2017-04-16T19:09:14.668Z,0
2017-04-16T19:11:38.040Z,0
2017-04-16T19:14:02.410Z,0
2017-04-16T19:16:25.759Z,0
2017-04-16T19:18:40.830Z,0
2017-04-16T19:20:55.769Z,0
2017-04-16T19:25:12.456Z,0
2017-04-16T19:27:35.884Z,0
2017-04-16T19:29:59.255Z,0
2017-04-16T19:32:22.693Z,0
2017-04-16T19:34:48.467Z,0
2017-04-16T19:38:51.209Z,0
2017-04-16T19:41:16.758Z,0
2017-04-16T19:50:54.974Z,0
2017-04-16T19:53:20.972Z,0
2017-04-16T19:55:44.589Z,0
2017-04-16T19:58:08.016Z,0
2017-04-16T20:00:31.333Z,0
2017-04-16T20:02:54.710Z,0
2017-04-16T20:05:18.323Z,0
2017-04-16T20:07:41.778Z,0
2017-04-16T20:10:20.381Z,0
2017-04-16T20:12:43.821Z,0
2017-04-16T20:19:19.716Z,0
2017-04-16T20:21:45.726Z,0
2017-04-16T20:24:09.131Z,0
2017-04-16T20:26:32.543Z,0
2017-04-16T20:28:55.874Z,0
2017-04-16T20:31:19.318Z,0
2017-04-16T20:33:42.617Z,0
2017-04-16T20:36:06.036Z,0
2017-04-16T20:38:29.477Z,0
2017-04-16T20:44:19.184Z,0
2017-04-16T20:46:53.903Z,0
2017-04-16T20:51:33.298Z,0
2017-04-16T20:53:56.699Z,0
2017-04-16T20:56:23.401Z,0
2017-04-16T21:00:56.384Z,0
2017-04-16T21:03:19.795Z,0
2017-04-16T21:05:44.837Z,0
2017-04-16T21:08:08.227Z,0
2017-04-16T21:10:23.156Z,0
2017-04-16T21:12:38.067Z,0
2017-04-16T21:16:46.775Z,0
2017-04-16T21:19:10.152Z,0
2017-04-16T21:21:36.171Z,0
2017-04-16T21:24:05.358Z,0
2017-04-16T21:26:28.700Z,0
2017-04-16T21:28:53.146Z,0
2017-04-16T21:31:16.452Z,0
2017-04-16T21:33:39.752Z,0
2017-04-16T21:36:03.150Z,0
2017-04-16T21:38:26.391Z,0
2017-04-16T21:40:41.265Z,0
2017-04-16T21:42:56.181Z,0
2017-04-16T21:45:19.530Z,0
2017-04-16T21:47:42.844Z,0
2017-04-16T21:49:58.755Z,0
2017-04-16T21:52:39.405Z,0
2017-04-16T21:55:02.706Z,0
2017-04-16T21:58:50.211Z,0
2017-04-16T22:01:14.570Z,0
2017-04-16T22:03:37.920Z,0
2017-04-16T22:05:53.762Z,0
2017-04-16T22:08:17.053Z,0
2017-04-16T22:10:28.404Z,0
2017-04-16T22:12:51.763Z,0
2017-04-16T22:15:18.071Z,0
2017-04-16T22:22:18.880Z,0
2017-04-16T22:24:42.240Z,0
2017-04-16T22:27:20.330Z,0
2017-04-16T22:29:43.649Z,0
2017-04-16T22:32:07.147Z,0
2017-04-16T22:34:30.439Z,0
2017-04-16T22:36:53.679Z,0
2017-04-16T22:39:17.013Z,0
2017-04-16T22:41:40.305Z,0
2017-04-16T22:44:03.588Z,0
2017-04-16T22:46:26.875Z,0
2017-04-16T22:48:51.170Z,0
2017-04-16T22:51:14.448Z,0
2017-04-16T22:53:37.753Z,0
2017-04-16T22:56:03.013Z,0
2017-04-16T22:58:27.313Z,0
2017-04-16T23:00:50.623Z,0
2017-04-16T23:03:13.859Z,0
2017-04-16T23:05:38.223Z,0
2017-04-16T23:11:05.610Z,0
2017-04-16T23:13:30.961Z,0
2017-04-16T23:15:54.199Z,0
2017-04-16T23:18:17.465Z,0
2017-04-16T23:20:40.703Z,0
2017-04-16T23:23:03.891Z,0
2017-04-16T23:25:33.844Z,0
2017-04-16T23:27:57.121Z,0
2017-04-16T23:30:20.446Z,0
2017-04-16T23:32:43.679Z,0
2017-04-16T23:35:06.866Z,0
2017-04-16T23:37:30.179Z,0
2017-04-16T23:39:53.439Z,0
2017-04-16T23:42:16.816Z,0
2017-04-16T23:44:54.972Z,0
2017-04-16T23:47:18.230Z,0
2017-04-16T23:49:41.566Z,0
2017-04-16T23:52:04.888Z,0
2017-04-16T23:54:28.156Z,0
2017-04-16T23:56:51.469Z,0
2017-04-16T23:59:14.724Z,0
